Dades meteomassalio
Diari Summary for Febrer 13, 2017 Units:  Metric    English   Both
« Previous Day
Next Day »
Diari Semanal Mensual Anual Personalitzat
  Maxima: Minima: Mijana:
Temperatura: -17.8 °C -13 °C -11.2 °C
Rosada: -17.8 °C -13.9 °C -12.7 °C
Humitat: Humidity % 70 % 84 %
Velocitat del vent: 0 km/h 0 km/h 22.9 km/h
Racha vent: 0 km/h - -
Vent:- - ESE
Pressio: 0 hPa 34107.2 hPa -
Pluja: 251.46 mm    
Historical Graphs
 
 
Tabular Data for Febrer 13, 2017
Time Temperature Dew Point Pressure Wind Wind Speed Wind Gust Humidity Rainfall Rate (Hourly) solar Conditions
-17.8 °C -17.8 °C 0 hPa Calm     Humidity % 0 mm SolarRadiationWatts/m^2 W/m2 Conditions
00:00 -11.1 °C -13.3 °C 34198.6 hPa SE 32.8 km/h 32.8 km/h 77 % 0 mm 0.0 W/m2 CLR
00:05 -11.1 °C -13.2 °C 34198.6 hPa SE 38.8 km/h 38.8 km/h 77 % 0 mm 0.0 W/m2 CLR
00:10 -11.1 °C -13.2 °C 34198.6 hPa ESE 38.8 km/h 38.8 km/h 77 % 0 mm 0.0 W/m2 CLR
00:15 -11.1 °C -13.4 °C 34198.6 hPa SE 32.8 km/h 32.8 km/h 76 % 0 mm 0.0 W/m2 CLR
00:20 -11.1 °C -13.4 °C 34198.6 hPa ESE 29.8 km/h 29.8 km/h 76 % 0 mm 0.0 W/m2 CLR
00:25 -11.2 °C -13.3 °C 34198.6 hPa ESE 31.1 km/h 31.1 km/h 77 % 0 mm 0.0 W/m2 CLR
00:30 -11.1 °C -13.3 °C 34198.6 hPa ESE 38.8 km/h 38.8 km/h 77 % 0 mm 0.0 W/m2 CLR
00:35 -11.2 °C -13.3 °C 34198.6 hPa ESE 35.7 km/h 35.7 km/h 77 % 0 mm 0.0 W/m2 CLR
00:40 -11.1 °C -13.3 °C 34198.6 hPa SE 29.8 km/h 29.8 km/h 77 % 0 mm 0.0 W/m2 CLR
00:45 -11.2 °C -13.4 °C 34198.6 hPa ESE 41.7 km/h 41.7 km/h 76 % 0 mm 0.0 W/m2 CLR
00:50 -11.1 °C -13.4 °C 34188.4 hPa SE 50.7 km/h 50.7 km/h 75 % 0 mm 0.0 W/m2 CLR
00:55 -11.1 °C -13.4 °C 34198.6 hPa SE 44.7 km/h 44.7 km/h 75 % 0 mm 0.0 W/m2 CLR
01:00 -11 °C -13.5 °C 34188.4 hPa SSE 47.6 km/h 47.6 km/h 74 % 0 mm 0.0 W/m2 CLR
01:05 -11 °C -13.7 °C 34188.4 hPa SE 53.6 km/h 53.6 km/h 72 % 0 mm 0.0 W/m2 CLR
01:11 -10.9 °C -13.9 °C 34188.4 hPa ESE 65.5 km/h 65.5 km/h 70 % 0 mm 0.0 W/m2 CLR
01:15 -10.9 °C -13.8 °C 34188.4 hPa SE 47.6 km/h 47.6 km/h 70 % 0 mm 0.0 W/m2 CLR
01:21 -10.9 °C -13.8 °C 34188.4 hPa SSE 44.7 km/h 44.7 km/h 70 % 0 mm 0.0 W/m2 CLR
01:26 -10.9 °C -13.8 °C 34188.4 hPa ESE 36.2 km/h 36.2 km/h 71 % 0 mm 0.0 W/m2 CLR
01:31 -11 °C -13.7 °C 34188.4 hPa East 32.8 km/h 32.8 km/h 73 % 0 mm 0.0 W/m2 CLR
01:36 -11.1 °C -13.6 °C 34188.4 hPa SE 38.8 km/h 38.8 km/h 74 % 0 mm 0.0 W/m2 CLR
01:41 -11.1 °C -13.5 °C 34178.3 hPa ESE 29.8 km/h 29.8 km/h 75 % 0 mm 0.0 W/m2 CLR
01:46 -11.2 °C -13.5 °C 34188.4 hPa SSE 49.2 km/h 49.2 km/h 75 % 0 mm 0.0 W/m2 CLR
01:51 -11.1 °C -13.4 °C 34178.3 hPa ESE 41.7 km/h 41.7 km/h 76 % 0 mm 0.0 W/m2 CLR
01:56 -11.1 °C -13.4 °C 34178.3 hPa ESE 38.8 km/h 38.8 km/h 76 % 0 mm 0.0 W/m2 CLR
02:01 -11.2 °C -13.4 °C 34178.3 hPa SE 44.7 km/h 44.7 km/h 76 % 0 mm 0.0 W/m2 CLR
02:06 -11.2 °C -13.3 °C 34178.3 hPa SE 47.6 km/h 47.6 km/h 77 % 0 mm 0.0 W/m2 CLR
02:11 -11.2 °C -13.3 °C 34164.7 hPa SE 38.8 km/h 38.8 km/h 77 % 0 mm 0.0 W/m2 CLR
02:16 -11.2 °C -13.3 °C 34178.3 hPa SE 38.8 km/h 38.8 km/h 77 % 0 mm 0.0 W/m2 CLR
02:21 -11.2 °C -13.3 °C 34178.3 hPa SE 47.6 km/h 47.6 km/h 77 % 0 mm 0.0 W/m2 CLR
02:26 -11.2 °C -13.3 °C 34178.3 hPa SE 46.7 km/h 46.7 km/h 77 % 0 mm 0.0 W/m2 CLR
02:31 -11.2 °C -13.2 °C 34178.3 hPa SE 41.7 km/h 41.7 km/h 78 % 0 mm 0.0 W/m2 CLR
02:36 -11.2 °C -13.3 °C 34178.3 hPa SE 44.7 km/h 44.7 km/h 78 % 0 mm 0.0 W/m2 CLR
02:41 -11.2 °C -13.2 °C 34164.7 hPa ESE 35.7 km/h 35.7 km/h 79 % 0 mm 0.0 W/m2 CLR
02:46 -11.3 °C -13.2 °C 34164.7 hPa SE 32.8 km/h 32.8 km/h 79 % 0 mm 0.0 W/m2 CLR
02:51 -11.3 °C -13.2 °C 34164.7 hPa SE 29.8 km/h 29.8 km/h 79 % 0 mm 0.0 W/m2 CLR
02:56 -11.3 °C -13.2 °C 34154.6 hPa ESE 35.7 km/h 35.7 km/h 79 % 0 mm 0.0 W/m2 CLR
03:01 -11.3 °C -13.2 °C 34154.6 hPa SE 50.7 km/h 50.7 km/h 79 % 0 mm 0.0 W/m2 CLR
03:06 -11.3 °C -13.2 °C 34154.6 hPa SE 56.6 km/h 56.6 km/h 79 % 0 mm 0.0 W/m2 CLR
03:11 -11.2 °C -13.2 °C 34144.4 hPa ESE 59.5 km/h 59.5 km/h 79 % 0 mm 0.0 W/m2 CLR
03:16 -11.2 °C -13.2 °C 34144.4 hPa SE 50.7 km/h 50.7 km/h 79 % 0 mm 0.0 W/m2 CLR
03:21 -11.3 °C -13.2 °C 34144.4 hPa SE 41.7 km/h 41.7 km/h 79 % 0 mm 0.0 W/m2 CLR
03:26 -11.3 °C -13.2 °C 34144.4 hPa SE 31.1 km/h 31.1 km/h 79 % 0 mm 0.0 W/m2 CLR
03:31 -11.3 °C -13.3 °C 34130.9 hPa SE 38.8 km/h 38.8 km/h 79 % 0 mm 0.0 W/m2 CLR
03:36 -11.3 °C -13.2 °C 34144.4 hPa ESE 50.7 km/h 50.7 km/h 79 % 0 mm 0.0 W/m2 CLR
03:41 -11.3 °C -13.3 °C 34154.6 hPa SE 35.7 km/h 35.7 km/h 79 % 0 mm 0.0 W/m2 CLR
03:46 -11.3 °C -13.3 °C 34154.6 hPa SE 38.8 km/h 38.8 km/h 79 % 0 mm 0.0 W/m2 CLR
03:51 -11.3 °C -13.3 °C 34144.4 hPa SE 29.8 km/h 29.8 km/h 79 % 0 mm 0.0 W/m2 CLR
03:56 -11.3 °C -13.3 °C 34144.4 hPa ESE 32.8 km/h 32.8 km/h 79 % 0 mm 0.0 W/m2 CLR
04:01 -11.3 °C -13.3 °C 34144.4 hPa ESE 47.6 km/h 47.6 km/h 79 % 0 mm 0.0 W/m2 CLR
04:06 -11.3 °C -13.2 °C 34154.6 hPa ESE 44.7 km/h 44.7 km/h 79 % 0 mm 0.0 W/m2 CLR
04:11 -11.3 °C -13.2 °C 34154.6 hPa ESE 38.8 km/h 38.8 km/h 79 % 0 mm 0.0 W/m2 CLR
04:16 -11.3 °C -13.2 °C 34154.6 hPa ESE 47.6 km/h 47.6 km/h 79 % 0 mm 0.0 W/m2 CLR
04:21 -11.3 °C -13.2 °C 34154.6 hPa ESE 50.7 km/h 50.7 km/h 79 % 0 mm 0.0 W/m2 CLR
04:26 -11.3 °C -13.2 °C 34154.6 hPa ESE 28.5 km/h 28.5 km/h 79 % 0 mm 0.0 W/m2 CLR
04:31 -11.3 °C -13.2 °C 34154.6 hPa ESE 41.7 km/h 41.7 km/h 79 % 0 mm 0.0 W/m2 CLR
04:36 -11.3 °C -13.2 °C 34154.6 hPa SE 32.8 km/h 32.8 km/h 79 % 0 mm 0.0 W/m2 CLR
04:41 -11.2 °C -13.3 °C 34154.6 hPa ESE 32.8 km/h 32.8 km/h 78 % 0 mm 0.0 W/m2 CLR
04:46 -11.2 °C -13.3 °C 34144.4 hPa ESE 26.9 km/h 26.9 km/h 78 % 0 mm 0.0 W/m2 CLR
04:51 -11.2 °C -13.3 °C 34144.4 hPa ESE 23.8 km/h 23.8 km/h 78 % 0 mm 0.0 W/m2 CLR
04:56 -11.2 °C -13.3 °C 34154.6 hPa SSE 11.9 km/h 11.9 km/h 78 % 0 mm 0.0 W/m2 CLR
05:01 -11.2 °C -13.3 °C 34154.6 hPa ESE 23.8 km/h 23.8 km/h 78 % 0 mm 0.0 W/m2 CLR
05:06 -11.2 °C -13.3 °C 34154.6 hPa SE 7.7 km/h 7.7 km/h 78 % 0 mm 0.0 W/m2 CLR
05:11 -11.2 °C -13.3 °C 34154.6 hPa East 23.8 km/h 23.8 km/h 78 % 0 mm 0.0 W/m2 CLR
05:16 -11.2 °C -13.3 °C 34144.4 hPa ENE 17.9 km/h 17.9 km/h 78 % 0 mm 0.0 W/m2 CLR
05:21 -11.2 °C -13.2 °C 34144.4 hPa East 26.9 km/h 26.9 km/h 79 % 0 mm 0.0 W/m2 CLR
05:26 -11.3 °C -13.1 °C 34144.4 hPa ESE 17.9 km/h 17.9 km/h 80 % 0 mm 0.0 W/m2 CLR
05:31 -11.3 °C -13.1 °C 34144.4 hPa SE 29.8 km/h 29.8 km/h 80 % 0 mm 0.0 W/m2 CLR
05:36 -11.3 °C -13.1 °C 34144.4 hPa SE 32.8 km/h 32.8 km/h 80 % 0 mm 0.0 W/m2 CLR
05:41 -11.2 °C -13.1 °C 34144.4 hPa SE 35.7 km/h 35.7 km/h 80 % 0 mm 0.0 W/m2 CLR
05:46 -11.2 °C -13 °C 34144.4 hPa SSE 32.8 km/h 32.8 km/h 80 % 0 mm 0.0 W/m2 CLR
05:51 -11.2 °C -13 °C 34144.4 hPa ESE 28.5 km/h 28.5 km/h 80 % 0 mm 0.0 W/m2 CLR
05:56 -11.2 °C -13 °C 34144.4 hPa ESE 35.7 km/h 35.7 km/h 80 % 0 mm 0.0 W/m2 CLR
06:01 -11.1 °C -12.8 °C 34144.4 hPa SE 29.8 km/h 29.8 km/h 81 % 0 mm 0.0 W/m2 CLR
06:06 -11.1 °C -12.8 °C 34144.4 hPa SE 38.8 km/h 38.8 km/h 81 % 0 mm 0.0 W/m2 CLR
06:11 -11.1 °C -12.8 °C 34144.4 hPa ESE 38.8 km/h 38.8 km/h 81 % 0 mm 0.0 W/m2 CLR
06:16 -11.1 °C -12.8 °C 34144.4 hPa ESE 38.8 km/h 38.8 km/h 81 % 0 mm 0.0 W/m2 CLR
06:21 -11.1 °C -12.8 °C 34154.6 hPa SE 41.7 km/h 41.7 km/h 81 % 0 mm 0.0 W/m2 CLR
06:26 -11.1 °C -12.7 °C 34144.4 hPa SSE 50.7 km/h 50.7 km/h 82 % 0 mm 0.0 W/m2 CLR
06:31 -11 °C -12.7 °C 34144.4 hPa ESE 32.8 km/h 33.2 km/h 82 % 0 mm 0.0 W/m2 CLR
06:36 -11 °C -12.7 °C 34130.9 hPa ESE 44.7 km/h 44.7 km/h 82 % 0 mm 0.0 W/m2 CLR
06:41 -11 °C -12.7 °C 34130.9 hPa ESE 41.7 km/h 41.7 km/h 81 % 0 mm 0.0 W/m2 CLR
06:46 -10.9 °C -12.7 °C 34130.9 hPa ESE 53.6 km/h 53.6 km/h 81 % 0 mm 0.0 W/m2 CLR
06:51 -10.9 °C -12.7 °C 34130.9 hPa ESE 53.6 km/h 53.6 km/h 80 % 0 mm 0.0 W/m2 CLR
06:56 -10.9 °C -12.7 °C 34144.4 hPa ESE 44.7 km/h 44.7 km/h 81 % 0 mm 0.0 W/m2 CLR
07:01 -10.9 °C -12.6 °C 34130.9 hPa ESE 50.7 km/h 50.7 km/h 81 % 0 mm 0.0 W/m2 CLR
07:06 -10.9 °C -12.7 °C 34130.9 hPa East 56.6 km/h 56.6 km/h 81 % 0 mm 0.0 W/m2 CLR
07:12 -10.9 °C -12.7 °C 34130.9 hPa ESE 47.6 km/h 47.6 km/h 81 % 0 mm 0.0 W/m2 CLR
07:17 -10.9 °C -12.6 °C 34130.9 hPa SE 44.1 km/h 44.1 km/h 81 % 0 mm 0.0 W/m2 CLR
07:22 -10.9 °C -12.7 °C 34130.9 hPa SE 41.7 km/h 41.7 km/h 81 % 0 mm 0.0 W/m2 CLR
07:27 -10.9 °C -12.6 °C 34130.9 hPa East 38.8 km/h 38.8 km/h 81 % 0 mm 0.0 W/m2 CLR
07:32 -10.9 °C -12.6 °C 34130.9 hPa ESE 44.7 km/h 44.7 km/h 81 % 0 mm 0.0 W/m2 CLR
07:37 -10.9 °C -12.6 °C 34130.9 hPa ESE 38.8 km/h 38.8 km/h 81 % 0 mm 0.0 W/m2 CLR
07:42 -10.9 °C -12.7 °C 34120.7 hPa East 36.2 km/h 36.2 km/h 81 % 0 mm 0.0 W/m2 CLR
07:47 -10.9 °C -12.6 °C 34120.7 hPa ESE 28.5 km/h 30.3 km/h 81 % 0 mm 0.0 W/m2 OVC
07:52 -10.9 °C -12.6 °C 34120.7 hPa ESE 38.8 km/h 38.8 km/h 81 % 0 mm 0.0 W/m2 OVC
07:57 -10.9 °C -12.6 °C 34107.2 hPa East 44.7 km/h 44.7 km/h 81 % 0 mm 5.0 W/m2 OVC
08:02 -10.9 °C -12.6 °C 34107.2 hPa ESE 32.8 km/h 32.8 km/h 81 % 0 mm 7.0 W/m2 BKN
08:07 -10.9 °C -12.7 °C 34107.2 hPa ESE 32.8 km/h 32.8 km/h 81 % 0 mm 9.0 W/m2 BKN
08:12 -10.9 °C -12.7 °C 34107.2 hPa ESE 41.7 km/h 41.7 km/h 81 % 0 mm 12.0 W/m2 BKN
08:17 -10.9 °C -12.6 °C 34120.7 hPa ESE 29.8 km/h 29.8 km/h 81 % 0 mm 18.0 W/m2 BKN
08:22 -10.9 °C -12.7 °C 34120.7 hPa ESE 29.8 km/h 29.8 km/h 81 % 0 mm 26.0 W/m2 BKN
08:27 -10.8 °C -12.6 °C 34120.7 hPa ESE 29.8 km/h 29.8 km/h 81 % 0 mm 28.0 W/m2 BKN
08:32 -10.8 °C -12.6 °C 34120.7 hPa ESE 32.8 km/h 32.8 km/h 81 % 0 mm 49.0 W/m2 SCT
08:37 -10.8 °C -12.6 °C 34120.7 hPa ESE 35.7 km/h 35.7 km/h 81 % 0 mm 65.0 W/m2 SCT
08:42 -10.8 °C -12.5 °C 34120.7 hPa East 33.6 km/h 33.6 km/h 82 % 0 mm 81.0 W/m2 FEW
08:47 -10.8 °C -12.5 °C 34120.7 hPa East 32.8 km/h 32.8 km/h 82 % 0 mm 91.0 W/m2 CLR
08:52 -10.8 °C -12.4 °C 34130.9 hPa East 38.8 km/h 38.8 km/h 82 % 0 mm 88.0 W/m2 CLR
08:57 -10.8 °C -12.4 °C 34130.9 hPa ESE 41.7 km/h 41.7 km/h 82 % 0 mm 65.0 W/m2 FEW
09:02 -10.7 °C -12.4 °C 34144.4 hPa ESE 41.7 km/h 41.7 km/h 82 % 0 mm 74.0 W/m2 FEW
09:07 -10.7 °C -12.4 °C 34144.4 hPa East 41.7 km/h 41.7 km/h 81 % 0 mm 40.0 W/m2 SCT
09:12 -10.7 °C -12.4 °C 34154.6 hPa East 35.7 km/h 35.7 km/h 81 % 0 mm 56.0 W/m2 SCT
09:17 -10.7 °C -12.6 °C 34154.6 hPa ESE 50.7 km/h 50.7 km/h 80 % 0 mm 81.0 W/m2 SCT
09:22 -10.6 °C -12.5 °C 34154.6 hPa ESE 29.8 km/h 29.8 km/h 80 % 0 mm 72.0 W/m2 FEW
09:27 -10.6 °C -12.4 °C 34154.6 hPa SE 31.1 km/h 31.1 km/h 80 % 0 mm 70.0 W/m2 FEW
09:32 -10.6 °C -12.4 °C 34154.6 hPa ESE 29.8 km/h 29.8 km/h 80 % 0 mm 32.0 W/m2 SCT
09:37 -10.6 °C -12.4 °C 34154.6 hPa ESE 35.7 km/h 35.7 km/h 80 % 0 mm 19.0 W/m2 BKN
09:42 -10.6 °C -12.5 °C 34154.6 hPa SE 38.8 km/h 38.8 km/h 80 % 0 mm 21.0 W/m2 BKN
09:47 -10.7 °C -12.6 °C 34164.7 hPa ESE 29.8 km/h 29.8 km/h 80 % 0 mm 25.0 W/m2 BKN
09:52 -10.7 °C -12.6 °C 34164.7 hPa SE 32.8 km/h 32.8 km/h 80 % 0 mm 18.0 W/m2 BKN
09:57 -10.7 °C -12.4 °C 34178.3 hPa ESE 35.7 km/h 35.7 km/h 81 % 0 mm 12.0 W/m2 BKN
10:02 -10.7 °C -12.4 °C 34178.3 hPa SSE 32.8 km/h 32.8 km/h 81 % 0 mm 12.0 W/m2 BKN
10:07 -10.8 °C -12.4 °C 34178.3 hPa SE 29.8 km/h 29.8 km/h 82 % 0 mm 16.0 W/m2 BKN
10:12 -10.9 °C -12.4 °C 34178.3 hPa ESE 23.8 km/h 23.8 km/h 83 % 7.62 mm 26.0 W/m2 RA
10:17 -10.9 °C -12.4 °C 34178.3 hPa SE 11.9 km/h 11.9 km/h 84 % 7.62 mm 16.0 W/m2 BKN
10:22 -11 °C -12.4 °C 34178.3 hPa SE 15 km/h 15 km/h 84 % 7.62 mm 14.0 W/m2 BKN
10:27 -11.1 °C -12.4 °C 34178.3 hPa SE 20.9 km/h 20.9 km/h 85 % 7.62 mm 12.0 W/m2 BKN
10:32 -11.1 °C -12.4 °C 34188.4 hPa SE 9 km/h 9 km/h 85 % 7.62 mm 11.0 W/m2 BKN
10:37 -11.1 °C -12.4 °C 34188.4 hPa Calm     86 % 7.62 mm 16.0 W/m2 BKN
10:42 -11.2 °C -12.4 °C 34188.4 hPa Calm     86 % 12.7 mm 16.0 W/m2 RA
10:47 -11.2 °C -12.4 °C 34188.4 hPa SE 15 km/h 15 km/h 86 % 20.32 mm 28.0 W/m2 RA
10:52 -11.2 °C -12.3 °C 34188.4 hPa SE 9 km/h 9 km/h 87 % 25.4 mm 35.0 W/m2 RA
10:57 -11.2 °C -12.4 °C 34188.4 hPa Calm     87 % 33.02 mm 26.0 W/m2 RA
11:02 -11.3 °C -12.4 °C 34198.6 hPa ESE 9 km/h 9 km/h 88 % 38.1 mm 33.0 W/m2 RA
11:07 -11.3 °C -12.3 °C 34198.6 hPa Calm     89 % 50.8 mm 25.0 W/m2 RA
11:12 -11.4 °C -12.4 °C 34212.1 hPa SSE 7.7 km/h 7.7 km/h 89 % 45.72 mm 12.0 W/m2 BKN
11:17 -11.4 °C -12.3 °C 34212.1 hPa SE 9 km/h 9 km/h 90 % 58.42 mm 11.0 W/m2 RA
11:22 -11.4 °C -12.3 °C 34212.1 hPa SE 15 km/h 15 km/h 90 % 63.5 mm 12.0 W/m2 RA
11:27 -11.4 °C -12.3 °C 34212.1 hPa ESE 17.9 km/h 17.9 km/h 90 % 83.82 mm 30.0 W/m2 RA
11:32 -11.5 °C -12.4 °C 34212.1 hPa East 17.9 km/h 17.9 km/h 90 % 104.14 mm 23.0 W/m2 RA
11:37 -11.6 °C -12.4 °C 34198.6 hPa ESE 20.9 km/h 20.9 km/h 91 % 116.84 mm 18.0 W/m2 RA
11:42 -11.6 °C -12.4 °C 34198.6 hPa ESE 15.6 km/h 15.6 km/h 91 % 116.84 mm 16.0 W/m2 RA
11:47 -11.6 °C -12.3 °C 34198.6 hPa SE 11.9 km/h 11.9 km/h 92 % 109.22 mm 23.0 W/m2 RA
11:52 -11.6 °C -12.3 °C 34198.6 hPa SE 11.9 km/h 11.9 km/h 92 % 116.84 mm 19.0 W/m2 RA
11:57 -11.6 °C -12.3 °C 34198.6 hPa SE 15 km/h 15 km/h 92 % 121.92 mm 21.0 W/m2 RA
12:02 -11.6 °C -12.3 °C 34198.6 hPa Calm     92 % 121.92 mm 25.0 W/m2 RA
12:07 -11.6 °C -12.3 °C 34198.6 hPa ESE 11.9 km/h 11.9 km/h 92 % 129.54 mm 33.0 W/m2 RA
12:12 -11.7 °C -12.4 °C 34188.4 hPa ENE 23.8 km/h 23.8 km/h 92 % 134.62 mm 39.0 W/m2 RA
12:17 -11.6 °C -12.3 °C 34178.3 hPa East 38.8 km/h 38.8 km/h 92 % 129.54 mm 42.0 W/m2 RA
12:22 -11.6 °C -12.3 °C 34164.7 hPa East 47.6 km/h 47.6 km/h 92 % 129.54 mm 63.0 W/m2 RA
12:27 -11.6 °C -12.3 °C 34164.7 hPa ESE 41.7 km/h 41.7 km/h 92 % 109.22 mm 81.0 W/m2 SCT
12:32 -11.5 °C -12.2 °C 34164.7 hPa ESE 31.1 km/h 31.1 km/h 92 % 96.52 mm 84.0 W/m2 FEW
12:37 -11.5 °C -12.2 °C 34178.3 hPa ESE 41.7 km/h 41.7 km/h 92 % 83.82 mm 83.0 W/m2 RA
12:42 -11.4 °C -12.2 °C 34164.7 hPa ESE 38.8 km/h 38.8 km/h 92 % 83.82 mm 72.0 W/m2 FEW
12:47 -11.4 °C -12.3 °C 34164.7 hPa ESE 44.7 km/h 44.7 km/h 91 % 76.2 mm 104.0 W/m2 FEW
12:53 -11.4 °C -12.2 °C 34164.7 hPa ESE 29.8 km/h 29.8 km/h 91 % 63.5 mm 107.0 W/m2 CLR
12:58 -11.4 °C -12.2 °C 34178.3 hPa SE 23.8 km/h 23.8 km/h 91 % 58.42 mm 107.0 W/m2 CLR
13:03 -11.3 °C -12.2 °C 34178.3 hPa SSE 29.8 km/h 29.8 km/h 91 % 45.72 mm 98.0 W/m2 CLR
13:08 -11.3 °C -12.1 °C 34178.3 hPa ESE 26.9 km/h 26.9 km/h 91 % 33.02 mm 95.0 W/m2 CLR
13:13 -11.3 °C -12.1 °C 34178.3 hPa East 23.8 km/h 23.8 km/h 91 % 20.32 mm 83.0 W/m2 CLR
13:18 -11.3 °C -12.1 °C 34178.3 hPa ESE 23.8 km/h 23.8 km/h 91 % 12.7 mm 76.0 W/m2 FEW
13:23 -11.3 °C -12.1 °C 34178.3 hPa East 18.2 km/h 18.2 km/h 91 % 7.62 mm 107.0 W/m2 FEW
13:28 -11.2 °C -12.1 °C 34164.7 hPa East 26.9 km/h 26.9 km/h 91 % 7.62 mm 244.0 W/m2 CLR
13:33 -11.2 °C -12 °C 34164.7 hPa ESE 23.8 km/h 23.8 km/h 91 % 7.62 mm 345.0 W/m2 CLR
13:38 -11 °C -11.8 °C 34164.7 hPa ESE 20.9 km/h 20.9 km/h 91 % 0 mm 640.0 W/m2 CLR
13:43 -10.9 °C -11.8 °C 34164.7 hPa ESE 26.9 km/h 26.9 km/h 91 % 0 mm 274.0 W/m2 CLR
13:48 -10.9 °C -11.7 °C 34164.7 hPa ESE 26.9 km/h 26.9 km/h 91 % 0 mm 167.0 W/m2 CLR
13:53 -10.9 °C -11.8 °C 34164.7 hPa ESE 31.1 km/h 31.1 km/h 90 % 0 mm 376.0 W/m2 CLR
13:58 -10.8 °C -11.7 °C 34164.7 hPa ESE 23.8 km/h 23.8 km/h 90 % 0 mm 392.0 W/m2 CLR
14:03 -10.8 °C -11.7 °C 34164.7 hPa East 29.8 km/h 29.8 km/h 90 % 0 mm 318.0 W/m2 CLR
14:08 -10.7 °C -11.6 °C 34164.7 hPa ESE 36.2 km/h 36.2 km/h 90 % 0 mm 213.0 W/m2 CLR
14:13 -10.7 °C -11.7 °C 34164.7 hPa ESE 29.8 km/h 29.8 km/h 89 % 0 mm 178.0 W/m2 CLR
14:18 -10.8 °C -11.8 °C 34164.7 hPa ESE 26.9 km/h 26.9 km/h 89 % 0 mm 258.0 W/m2 CLR
14:23 -10.7 °C -11.7 °C 34164.7 hPa SE 31.1 km/h 31.1 km/h 89 % 0 mm 190.0 W/m2 CLR
14:28 -10.7 °C -11.7 °C 34164.7 hPa SE 29.8 km/h 29.8 km/h 89 % 0 mm 156.0 W/m2 CLR
14:33 -10.7 °C -11.7 °C 34164.7 hPa ESE 17.9 km/h 17.9 km/h 89 % 0 mm 206.0 W/m2 CLR
14:38 -10.7 °C -11.6 °C 34164.7 hPa East 28.5 km/h 28.5 km/h 89 % 0 mm 260.0 W/m2 CLR
14:43 -10.6 °C -11.6 °C 34164.7 hPa SE 20.9 km/h 20.9 km/h 89 % 0 mm 309.0 W/m2 CLR
14:48 -10.6 °C -11.6 °C 34164.7 hPa East 20.9 km/h 20.9 km/h 89 % 0 mm 257.0 W/m2 CLR
14:53 -10.4 °C -11.4 °C 34164.7 hPa ESE 17.9 km/h 17.9 km/h 89 % 0 mm 216.0 W/m2 CLR
14:58 -10.4 °C -11.4 °C 34164.7 hPa Calm     89 % 0 mm 267.0 W/m2 CLR
15:03 -10.3 °C -11.3 °C 34164.7 hPa East 9 km/h 9 km/h 89 % 0 mm 302.0 W/m2 CLR
15:08 -10.2 °C -11.3 °C 34164.7 hPa ESE 23.8 km/h 23.8 km/h 88 % 0 mm 214.0 W/m2 CLR
15:13 -10.2 °C -11.4 °C 34164.7 hPa ESE 20.9 km/h 20.9 km/h 86 % 0 mm 193.0 W/m2 CLR
15:18 -10.1 °C -11.3 °C 34164.7 hPa ESE 23.3 km/h 23.3 km/h 87 % 0 mm 204.0 W/m2 CLR
15:23 -10.1 °C -11.5 °C 34164.7 hPa ESE 29.8 km/h 29.8 km/h 85 % 0 mm 199.0 W/m2 CLR
15:28 -10.1 °C -11.5 °C 34164.7 hPa East 29.8 km/h 29.8 km/h 85 % 0 mm 206.0 W/m2 CLR
15:33 -10.1 °C -11.6 °C 34164.7 hPa ESE 23.8 km/h 23.8 km/h 84 % 0 mm 221.0 W/m2 CLR
15:38 -10.1 °C -11.6 °C 34164.7 hPa ESE 20.9 km/h 20.9 km/h 84 % 0 mm 211.0 W/m2 CLR
15:43 -10.1 °C -11.6 °C 34164.7 hPa SSE 20.9 km/h 20.9 km/h 84 % 0 mm 183.0 W/m2 CLR
15:48 -10.1 °C -11.6 °C 34164.7 hPa ESE 32.8 km/h 32.8 km/h 83 % 0 mm 165.0 W/m2 CLR
15:53 -10 °C -11.7 °C 34164.7 hPa SE 26.9 km/h 26.9 km/h 82 % 0 mm 153.0 W/m2 CLR
15:58 -9.9 °C -11.6 °C 34178.3 hPa SSE 9 km/h 9 km/h 82 % 0 mm 83.0 W/m2 CLR
16:03 -10 °C -11.7 °C 34178.3 hPa SE 20.9 km/h 20.9 km/h 82 % 0 mm 69.0 W/m2 FEW
16:08 -10 °C -11.7 °C 34178.3 hPa SSE 32.8 km/h 32.8 km/h 82 % 0 mm 77.0 W/m2 FEW
16:13 -10 °C -11.8 °C 34178.3 hPa SSE 26.9 km/h 26.9 km/h 81 % 0 mm 86.0 W/m2 FEW
16:18 -10 °C -11.8 °C 34178.3 hPa SE 23.8 km/h 23.8 km/h 81 % 0 mm 72.0 W/m2 FEW
16:23 -10 °C -11.8 °C 34178.3 hPa SSE 20.9 km/h 20.9 km/h 81 % 0 mm 77.0 W/m2 FEW
16:28 -10 °C -11.7 °C 34188.4 hPa SE 20.9 km/h 20.9 km/h 82 % 0 mm 95.0 W/m2 FEW
16:33 -10 °C -11.8 °C 34188.4 hPa South 29.8 km/h 29.8 km/h 81 % 0 mm 76.0 W/m2 CLR
16:38 -10 °C -11.8 °C 34188.4 hPa South 17.9 km/h 17.9 km/h 81 % 0 mm 56.0 W/m2 FEW
16:43 -10 °C -11.8 °C 34198.6 hPa Calm     81 % 0 mm 35.0 W/m2 SCT
16:48 -10 °C -11.8 °C 34198.6 hPa Calm     81 % 0 mm 33.0 W/m2 BKN
16:53 -10.2 °C -11.9 °C 34198.6 hPa NE 15.6 km/h 15.6 km/h 81 % 0 mm 84.0 W/m2 BKN
16:58 -10.2 °C -11.8 °C 34198.6 hPa East 6 km/h   82 % 0 mm 171.0 W/m2 SCT
17:03 -10.1 °C -11.8 °C 34198.6 hPa Calm     82 % 0 mm 188.0 W/m2 CLR
17:08 -10.1 °C -12 °C 34198.6 hPa Calm     80 % 0 mm 149.0 W/m2 CLR
17:13 -10.2 °C -12.1 °C 34198.6 hPa ENE 15 km/h 15 km/h 80 % 0 mm 146.0 W/m2 CLR
17:18 -10.2 °C -12 °C 34212.1 hPa ENE 9 km/h 9 km/h 81 % 0 mm 118.0 W/m2 CLR
17:23 -10.3 °C -11.9 °C 34212.1 hPa ENE 18.2 km/h 18.2 km/h 82 % 0 mm 86.0 W/m2 CLR
17:28 -10.3 °C -11.8 °C 34212.1 hPa ESE 15 km/h 15 km/h 84 % 0 mm 63.0 W/m2 FEW
17:33 -10.3 °C -11.8 °C 34212.1 hPa ESE 15.6 km/h 15.6 km/h 84 % 0 mm 42.0 W/m2 BKN
17:38 -10.3 °C -11.7 °C 34212.1 hPa East 17.9 km/h 17.9 km/h 85 % 0 mm 35.0 W/m2 BKN
17:43 -10.3 °C -11.7 °C 34212.1 hPa Calm     85 % 0 mm 26.0 W/m2 BKN
17:48 -10.4 °C -11.7 °C 34222.3 hPa East 11.9 km/h 11.9 km/h 85 % 0 mm 19.0 W/m2 BKN
17:53 -10.4 °C -11.8 °C 34222.3 hPa Calm     84 % 0 mm 12.0 W/m2 BKN
17:58 -10.4 °C -11.8 °C 34222.3 hPa ESE 12.9 km/h 12.9 km/h 85 % 0 mm 11.0 W/m2 BKN
18:03 -10.4 °C -11.8 °C 34222.3 hPa ESE 17.9 km/h 17.9 km/h 85 % 0 mm 9.0 W/m2 BKN
18:08 -10.4 °C -11.8 °C 34222.3 hPa SE 9 km/h   85 % 0 mm 9.0 W/m2 BKN
18:13 -10.5 °C -11.8 °C 34222.3 hPa Calm     85 % 0 mm 7.0 W/m2 BKN
18:18 -10.5 °C -11.9 °C 34222.3 hPa Calm     85 % 0 mm 0.0 W/m2 OVC
18:23 -10.6 °C -11.8 °C 34235.8 hPa Calm     86 % 0 mm 0.0 W/m2 OVC
18:28 -10.6 °C -11.8 °C 34235.8 hPa Calm     86 % 0 mm 0.0 W/m2 OVC
18:33 -10.6 °C -11.8 °C 34235.8 hPa SE 11.9 km/h 11.9 km/h 86 % 0 mm 0.0 W/m2 OVC
18:38 -10.6 °C -11.9 °C 34235.8 hPa Calm     86 % 0 mm 0.0 W/m2 OVC
18:43 -10.7 °C -11.9 °C 34235.8 hPa Calm     86 % 0 mm 0.0 W/m2 CLR
18:48 -10.7 °C -11.9 °C 34235.8 hPa Calm     86 % 0 mm 0.0 W/m2 CLR
18:53 -10.7 °C -11.9 °C 34246 hPa SSE 9 km/h 9 km/h 86 % 0 mm 0.0 W/m2 CLR
18:58 -10.7 °C -11.9 °C 34246 hPa Calm     86 % 0 mm 0.0 W/m2 CLR
19:03 -10.7 °C -12 °C 34246 hPa Calm     86 % 0 mm 0.0 W/m2 CLR
19:08 -10.7 °C -12 °C 34256.2 hPa Calm     86 % 0 mm 0.0 W/m2 CLR
19:13 -10.8 °C -12.5 °C 34279.9 hPa WNW 44.7 km/h 44.7 km/h 82 % 0 mm 0.0 W/m2 CLR
19:18 -10.9 °C -12.7 °C 34279.9 hPa WNW 36.2 km/h 36.2 km/h 81 % 0 mm 0.0 W/m2 CLR
19:23 -11.2 °C -12.7 °C 34293.4 hPa West 29.8 km/h 29.8 km/h 84 % 7.62 mm 0.0 W/m2 RA
19:28 -11.4 °C -12.8 °C 34293.4 hPa West 15.6 km/h 15.6 km/h 85 % 12.7 mm 0.0 W/m2 RA
19:33 -11.6 °C -12.8 °C 34293.4 hPa Calm     86 % 12.7 mm 0.0 W/m2 CLR
19:38 -11.7 °C -12.8 °C 34293.4 hPa Calm     87 % 12.7 mm 0.0 W/m2 CLR
19:43 -11.7 °C -12.9 °C 34303.6 hPa Calm     87 % 12.7 mm 0.0 W/m2 RA
19:48 -11.8 °C -12.8 °C 34303.6 hPa Calm     88 % 12.7 mm 0.0 W/m2
19:53 -11.8 °C -12.8 °C 34303.6 hPa Calm     89 % 12.7 mm 0.0 W/m2 CLR
19:58 -11.9 °C -12.8 °C 34303.6 hPa Calm     89 % 20.32 mm 0.0 W/m2 RA
20:03 -12 °C -12.8 °C 34303.6 hPa Calm     90 % 20.32 mm 0.0 W/m2
20:08 -12 °C -12.9 °C 34303.6 hPa Calm     90 % 20.32 mm 0.0 W/m2 CLR
20:13 -12.1 °C -12.8 °C 34313.7 hPa Calm     91 % 25.4 mm 0.0 W/m2 RA
20:18 -12.1 °C -12.9 °C 34313.7 hPa Calm     91 % 25.4 mm 0.0 W/m2
20:23 -12.1 °C -12.9 °C 34313.7 hPa Calm     91 % 25.4 mm 0.0 W/m2 RA
20:28 -12.1 °C -12.9 °C 34313.7 hPa Calm     91 % 33.02 mm 0.0 W/m2 RA
20:29 -12.1 °C -12.9 °C 34313.7 hPa Calm     91 % 33.02 mm 0.0 W/m2 RA
20:34 -12.1 °C -12.9 °C 34327.3 hPa Calm     91 % 33.02 mm 0.0 W/m2 CLR
20:39 -12.1 °C -12.9 °C 34327.3 hPa Calm     91 % 33.02 mm 0.0 W/m2 CLR
20:44 -12.2 °C -12.8 °C 34327.3 hPa Calm     92 % 25.4 mm 0.0 W/m2 CLR
20:49 -12.2 °C -12.9 °C 34327.3 hPa Calm     91 % 33.02 mm 0.0 W/m2 RA
20:54 -12.2 °C -12.9 °C 34337.4 hPa Calm     92 % 33.02 mm 0.0 W/m2
20:59 -12.2 °C -12.9 °C 34337.4 hPa Calm     92 % 25.4 mm 0.0 W/m2 CLR
21:04 -12.3 °C -12.9 °C 34347.6 hPa Calm     92 % 25.4 mm 0.0 W/m2 CLR
21:09 -12.3 °C -12.9 °C 34337.4 hPa Calm     92 % 25.4 mm 0.0 W/m2 CLR
21:14 -12.3 °C -12.9 °C 34347.6 hPa Calm     92 % 20.32 mm 0.0 W/m2 CLR
21:19 -12.3 °C -12.9 °C 34347.6 hPa Calm     92 % 12.7 mm 0.0 W/m2 CLR
21:24 -12.3 °C -12.9 °C 34347.6 hPa Calm     92 % 12.7 mm 0.0 W/m2 CLR
21:29 -12.3 °C -13 °C 34347.6 hPa Calm     92 % 7.62 mm 0.0 W/m2 CLR
21:34 -12.3 °C -13 °C 34347.6 hPa Calm     92 % 7.62 mm 0.0 W/m2 CLR
21:39 -12.4 °C -13.1 °C 34347.6 hPa Calm     92 % 7.62 mm 0.0 W/m2 CLR
21:44 -12.4 °C -13.1 °C 34347.6 hPa Calm     92 % 7.62 mm 0.0 W/m2 CLR
21:49 -12.5 °C -13.2 °C 34347.6 hPa Calm     92 % 0 mm 0.0 W/m2 CLR
21:54 -12.6 °C -13.2 °C 34347.6 hPa Calm     92 % 0 mm 0.0 W/m2 CLR
21:59 -12.6 °C -13.3 °C 34361.1 hPa Calm     92 % 0 mm 0.0 W/m2 CLR
22:04 -12.6 °C -13.2 °C 34361.1 hPa Calm     93 % 0 mm 0.0 W/m2 CLR
22:09 -12.7 °C -13.4 °C 34361.1 hPa Calm     92 % 0 mm 0.0 W/m2 CLR
22:14 -12.7 °C -13.3 °C 34361.1 hPa Calm     93 % 0 mm 0.0 W/m2 CLR
22:19 -12.7 °C -13.3 °C 34361.1 hPa Calm     93 % 0 mm 0.0 W/m2 CLR
22:24 -12.7 °C -13.3 °C 34361.1 hPa Calm     93 % 0 mm 0.0 W/m2 CLR
22:29 -12.7 °C -13.2 °C 34371.3 hPa Calm     93 % 0 mm 0.0 W/m2 CLR
22:34 -12.7 °C -13.2 °C 34371.3 hPa Calm     93 % 0 mm 0.0 W/m2 CLR
22:39 -12.7 °C -13.2 °C 34371.3 hPa Calm     93 % 0 mm 0.0 W/m2 CLR
22:44 -12.7 °C -13.2 °C 34371.3 hPa Calm     93 % 0 mm 0.0 W/m2 CLR
22:49 -12.7 °C -13.2 °C 34384.8 hPa Calm     93 % 0 mm 0.0 W/m2 CLR
22:54 -12.7 °C -13.3 °C 34384.8 hPa Calm     93 % 0 mm 0.0 W/m2 CLR
22:59 -12.8 °C -13.4 °C 34384.8 hPa Calm     93 % 0 mm 0.0 W/m2 CLR
23:04 -12.8 °C -13.4 °C 34384.8 hPa Calm     93 % 0 mm 0.0 W/m2 CLR
23:09 -12.9 °C -13.4 °C 34395 hPa Calm     93 % 0 mm 0.0 W/m2 CLR
23:14 -12.9 °C -13.5 °C 34395 hPa Calm     93 % 0 mm 0.0 W/m2 CLR
23:19 -12.9 °C -13.5 °C 34395 hPa Calm     93 % 0 mm 0.0 W/m2 CLR
23:24 -12.9 °C -13.5 °C 34395 hPa Calm     93 % 0 mm 0.0 W/m2 CLR
23:29 -12.9 °C -13.6 °C 34395 hPa Calm     93 % 0 mm 0.0 W/m2 CLR
23:34 -13 °C -13.6 °C 34395 hPa Calm     93 % 0 mm 0.0 W/m2 CLR
23:39 -13 °C -13.6 °C 34405.1 hPa Calm     93 % 0 mm 0.0 W/m2 CLR
23:44 -13 °C -13.6 °C 34405.1 hPa Calm     93 % 0 mm 0.0 W/m2 CLR
23:49 -13 °C -13.6 °C 34405.1 hPa Calm     93 % 0 mm 0.0 W/m2 CLR
23:54 -12.9 °C -13.5 °C 34405.1 hPa Calm     93 % 0 mm 0.0 W/m2 CLR
23:59 -12.8 °C -13.4 °C 34405.1 hPa Calm     93 % 0 mm 0.0 W/m2 CLR
Lo Temps de Massalio
Compliments of Weather Underground - 1.25 mb